Time;durP1;ratioP1;P1;durP2;ratioP2;P2;SDS_P1;SDS_P2;PMS_P1;PMS_P2;Temp;Humidity;BMP_temperature;BMP_pressure;BME280_temperature;BME280_humidity;BME280_pressure;Samples;Min_cycle;Max_cycle;Signal;HPM_P1;HPM_P2
2022/12/27 00:00:50;;;;;;;7.65;6.93;;;;;;;1.19;100.00;102344.03;5106663;29;20027;-64
2022/12/27 00:03:21;;;;;;;13.07;7.40;;;;;;;1.20;100.00;102340.38;5088929;29;20110;-64
2022/12/27 00:05:51;;;;;;;10.05;8.55;;;;;;;1.18;100.00;102340.53;5106426;29;20027;-63
2022/12/27 00:08:21;;;;;;;8.10;7.53;;;;;;;1.20;100.00;102346.53;5106227;29;20544;-62
2022/12/27 00:10:52;;;;;;;7.32;6.78;;;;;;;1.25;100.00;102344.25;5106143;29;20318;-63
2022/12/27 00:13:22;;;;;;;16.98;6.38;;;;;;;1.24;100.00;102341.75;5105634;29;20023;-61
2022/12/27 00:15:53;;;;;;;10.45;6.13;;;;;;;1.24;100.00;102347.06;5106505;29;20057;-62
2022/12/27 00:18:23;;;;;;;10.65;6.78;;;;;;;1.23;100.00;102332.91;5106307;29;20026;-64
2022/12/27 00:21:00;;;;;;;8.15;7.53;;;;;;;1.22;100.00;102344.56;5106192;29;20055;-64
2022/12/27 00:23:34;;;;;;;6.75;6.18;;;;;;;1.19;100.00;102322.75;5105440;29;20415;-63
2022/12/27 00:26:09;;;;;;;7.32;6.82;;;;;;;1.29;100.00;102328.78;5105881;29;20539;-63
2022/12/27 00:28:40;;;;;;;6.15;5.82;;;;;;;1.31;100.00;102330.31;5106906;29;20028;-62
2022/12/27 00:31:12;;;;;;;7.43;6.53;;;;;;;1.39;100.00;102337.50;5107409;29;20033;-63
2022/12/27 00:33:44;;;;;;;12.65;6.38;;;;;;;1.39;100.00;102328.69;5105314;29;20038;-64
2022/12/27 00:36:20;;;;;;;7.25;5.72;;;;;;;1.37;100.00;102331.50;5105713;29;20031;-63
2022/12/27 00:38:51;;;;;;;6.20;5.68;;;;;;;1.33;100.00;102336.31;5105213;29;20028;-65
2022/12/27 00:41:22;;;;;;;6.90;5.20;;;;;;;1.23;100.00;102316.94;5105314;29;20048;-66
2022/12/27 00:43:53;;;;;;;12.52;7.10;;;;;;;1.23;100.00;102322.28;5102259;29;20032;-63
2022/12/27 00:46:23;;;;;;;7.10;5.28;;;;;;;1.33;100.00;102343.44;5105560;29;20396;-63
2022/12/27 00:48:54;;;;;;;7.93;6.95;;;;;;;1.31;100.00;102342.78;5105482;29;20019;-64
2022/12/27 00:51:25;;;;;;;9.15;6.10;;;;;;;1.32;100.00;102353.28;5106120;29;20028;-63
2022/12/27 00:56:29;;;;;;;9.13;6.18;;;;;;;1.39;100.00;102358.78;5111819;29;20051;-64
2022/12/27 00:59:03;;;;;;;6.78;6.38;;;;;;;1.34;100.00;102364.59;5125401;29;20443;-63
2022/12/27 01:01:35;;;;;;;7.70;6.90;;;;;;;1.34;100.00;102361.94;5107609;29;20030;-63
2022/12/27 01:04:05;;;;;;;15.00;7.22;;;;;;;1.33;100.00;102370.06;5125196;29;20062;-64
2022/12/27 01:06:36;;;;;;;18.00;6.50;;;;;;;1.29;100.00;102372.22;5108131;29;20062;-63
2022/12/27 01:09:06;;;;;;;5.63;4.72;;;;;;;1.10;100.00;102345.00;5125112;29;20042;-63
2022/12/27 01:11:39;;;;;;;11.50;6.60;;;;;;;1.25;100.00;102375.34;5124944;29;20027;-63
2022/12/27 01:14:10;;;;;;;6.78;6.22;;;;;;;1.27;100.00;102371.53;5124364;29;20335;-63
2022/12/27 01:16:41;;;;;;;7.28;5.03;;;;;;;1.26;100.00;102377.84;5124884;29;20487;-63
2022/12/27 01:19:11;;;;;;;7.90;7.10;;;;;;;1.30;100.00;102373.03;5125951;29;20038;-64
2022/12/27 01:24:24;;;;;;;10.07;6.63;;;;;;;1.14;100.00;102375.63;5118381;29;20058;-92
2022/12/27 01:26:56;;;;;;;14.05;7.28;;;;;;;-0.03;100.00;102219.13;5121044;29;20031;-93
2022/12/27 01:29:27;;;;;;;9.43;7.90;;;;;;;-0.07;100.00;102199.16;5113006;28;20212;-93
2022/12/27 01:31:58;;;;;;;10.85;6.97;;;;;;;-0.17;100.00;102184.31;5114889;28;20106;-92
2022/12/27 01:34:28;;;;;;;11.25;6.40;;;;;;;-0.52;100.00;102086.97;5104526;29;20031;-93
2022/12/27 01:36:59;;;;;;;7.75;7.07;;;;;;;1.37;100.00;102402.53;5118993;29;20027;-93
2022/12/27 01:39:34;;;;;;;8.00;5.85;;;;;;;0.80;100.00;102364.91;5125764;29;20035;-94
2022/12/27 01:45:16;;;;;;;13.20;8.18;;;;;;;-0.10;100.00;102233.16;5129262;29;20148;-92
2022/12/27 01:48:00;;;;;;;18.95;8.25;;;;;;;1.28;100.00;102425.59;5112778;29;20087;-92
2022/12/27 01:50:54;;;;;;;12.27;11.07;;;;;;;0.96;100.00;102365.00;5110498;29;20024;-93
2022/12/27 01:53:32;;;;;;;18.45;13.02;;;;;;;-1.06;100.00;102054.31;5103487;29;20024;-93
2022/12/27 01:56:14;;;;;;;15.52;14.05;;;;;;;-1.04;100.00;102086.81;5103910;29;20039;-94
2022/12/27 01:59:04;;;;;;;13.63;11.60;;;;;;;1.15;100.00;102419.88;5106184;29;20027;-93
2022/12/27 02:01:40;;;;;;;18.02;13.10;;;;;;;0.05;100.00;102252.03;5107741;29;20103;-94
2022/12/27 02:04:18;;;;;;;11.77;10.65;;;;;;;-0.42;100.00;102212.44;5107652;29;20028;-92
2022/12/27 02:06:50;;;;;;;12.63;10.13;;;;;;;1.24;100.00;102496.91;5103188;29;20036;-92
2022/12/27 02:09:27;;;;;;;10.02;9.07;;;;;;;1.22;100.00;102445.66;5103225;29;20024;-93
2022/12/27 02:12:00;;;;;;;8.25;7.65;;;;;;;-0.54;100.00;102150.78;5108075;29;20050;-92
2022/12/27 02:14:42;;;;;;;9.32;8.52;;;;;;;1.29;100.00;102480.47;5110507;29;20026;-92
2022/12/27 02:17:21;;;;;;;16.25;8.35;;;;;;;-1.30;100.00;102028.41;5112621;28;20031;-92
2022/12/27 02:20:12;;;;;;;10.47;6.47;;;;;;;1.24;100.00;102453.50;5112598;28;20015;-92
2022/12/27 02:25:58;;;;;;;5.00;4.68;;;;;;;1.19;100.00;102451.28;5122138;29;20071;-93
2022/12/27 02:29:01;;;;;;;7.88;5.75;;;;;;;-0.12;100.00;102235.97;5103570;29;20024;-93
2022/12/27 02:32:00;;;;;;;6.50;6.00;;;;;;;0.24;100.00;102297.03;5120010;29;20163;-92
2022/12/27 02:34:39;;;;;;;7.70;6.85;;;;;;;0.28;100.00;102327.63;5093016;29;20039;-92
2022/12/27 02:37:12;;;;;;;6.83;6.43;;;;;;;1.10;100.00;102440.78;5103888;29;20035;-94
2022/12/27 02:39:48;;;;;;;10.98;7.22;;;;;;;-0.09;100.00;102248.94;5102708;29;20283;-93
2022/12/27 02:54:41;;;;;;;8.13;5.30;;;;;;;-0.08;100.00;102247.94;5119798;29;20107;-92
2022/12/27 02:57:57;;;;;;;4.80;4.50;;;;;;;-0.14;100.00;102266.31;5103252;29;20044;-93
2022/12/27 03:03:30;;;;;;;5.60;5.20;;;;;;;1.10;100.00;102460.22;5119327;29;20071;-92
2022/12/27 03:06:40;;;;;;;7.32;5.13;;;;;;;1.10;100.00;102452.25;5103085;29;20059;-92
2022/12/27 03:16:08;;;;;;;11.73;4.95;;;;;;;0.95;100.00;102465.25;5123107;29;20042;-92
2022/12/27 03:18:56;;;;;;;7.45;5.88;;;;;;;1.02;100.00;102470.81;5106358;29;20124;-92
2022/12/27 03:27:31;;;;;;;16.95;6.00;;;;;;;0.38;100.00;102349.59;5122680;29;20035;-93
2022/12/27 03:33:14;;;;;;;13.23;5.70;;;;;;;-0.60;100.00;102228.34;5122339;29;20039;-92
2022/12/27 03:39:04;;;;;;;6.30;5.55;;;;;;;0.60;100.00;102423.56;5122248;29;20063;-91
2022/12/27 03:44:33;;;;;;;6.53;5.80;;;;;;;0.17;100.00;102347.28;5122098;29;20031;-92
2022/12/27 03:47:21;;;;;;;8.75;5.97;;;;;;;-0.20;100.00;102270.38;5122276;29;20030;-92
2022/12/27 03:50:03;;;;;;;9.25;5.47;;;;;;;-0.35;100.00;102240.91;5105069;29;20031;-93
2022/12/27 03:53:00;;;;;;;5.95;5.40;;;;;;;1.09;100.00;102477.19;5105705;29;20014;-92
2022/12/27 03:55:31;;;;;;;8.65;5.18;;;;;;;-0.20;100.00;102307.56;5101762;29;20098;-94
2022/12/27 03:58:02;;;;;;;9.93;6.28;;;;;;;0.11;100.00;102339.06;5106238;29;20438;-93
2022/12/27 04:00:33;;;;;;;6.90;5.32;;;;;;;0.27;100.00;102332.09;5105264;29;20051;-94
2022/12/27 04:03:04;;;;;;;7.68;5.93;;;;;;;0.53;100.00;102382.66;5104953;29;20028;-95
2022/12/27 04:05:34;;;;;;;7.70;6.78;;;;;;;-0.96;100.00;102144.41;5105051;29;20067;-93
2022/12/27 04:36:16;;;;;;;7.18;5.57;;;;;;;0.02;100.00;102377.13;5131963;28;20035;-92
2022/12/27 04:38:48;;;;;;;5.45;5.05;;;;;;;-0.91;100.00;102222.53;5121421;29;20028;-93
2022/12/27 04:55:27;;;;;;;6.95;6.30;;;;;;;-0.22;100.00;102282.13;5121222;29;20042;-92
2022/12/27 04:57:58;;;;;;;7.00;6.30;;;;;;;-0.01;100.00;102349.09;5104598;29;20549;-92
2022/12/27 05:03:20;;;;;;;;;;;;;;;1.09;100.00;102513.59;5121619;29;20195;-92
2022/12/27 05:05:52;;;;;;;9.63;6.88;;;;;;;0.00;100.00;102354.22;5103440;29;20000;-93
2022/12/27 05:14:05;;;;;;;11.55;6.70;;;;;;;-1.58;100.00;102167.16;5121807;29;20039;-92
2022/12/27 05:16:40;;;;;;;7.10;5.90;;;;;;;-0.87;100.00;102287.56;5121533;29;20023;-93
2022/12/27 05:19:12;;;;;;;5.95;5.50;;;;;;;0.75;100.00;102524.06;5104613;29;20062;-92
2022/12/27 05:27:25;;;;;;;5.20;4.80;;;;;;;-0.26;100.00;102371.03;5120607;29;20110;-93
2022/12/27 05:29:56;;;;;;;6.80;5.97;;;;;;;0.67;100.00;102515.03;5114404;23;20040;-69
2022/12/27 05:32:26;;;;;;;8.60;5.07;;;;;;;0.70;100.00;102516.53;5099848;29;20392;-68
2022/12/27 05:34:57;;;;;;;8.65;6.22;;;;;;;0.66;100.00;102513.34;5104986;29;20043;-68
2022/12/27 05:37:27;;;;;;;7.03;5.65;;;;;;;0.66;100.00;102523.97;5104981;29;20031;-68
2022/12/27 05:39:57;;;;;;;7.13;6.53;;;;;;;0.64;100.00;102520.63;5104176;29;20119;-71
2022/12/27 05:42:28;;;;;;;8.15;7.10;;;;;;;0.64;100.00;102527.78;5103504;29;20040;-70
2022/12/27 05:44:58;;;;;;;9.40;6.28;;;;;;;0.59;100.00;102522.91;5103519;29;20034;-70
2022/12/27 05:47:28;;;;;;;7.38;6.43;;;;;;;0.61;100.00;102530.72;5103806;29;20067;-70
2022/12/27 05:49:59;;;;;;;7.85;5.85;;;;;;;0.67;100.00;102528.31;5103659;29;20028;-70
2022/12/27 05:52:29;;;;;;;6.60;5.38;;;;;;;0.63;100.00;102524.28;5086339;29;20031;-70
2022/12/27 05:55:00;;;;;;;9.70;5.40;;;;;;;0.60;100.00;102519.25;5086407;29;20059;-70
2022/12/27 05:57:30;;;;;;;7.07;6.47;;;;;;;0.59;100.00;102517.59;5103281;29;20035;-69
2022/12/27 06:00:02;;;;;;;7.15;4.55;;;;;;;0.61;100.00;102514.78;5103543;29;20034;-70
2022/12/27 06:02:33;;;;;;;6.40;5.82;;;;;;;0.71;100.00;102515.56;5103255;29;20039;-69
2022/12/27 06:05:04;;;;;;;10.65;6.82;;;;;;;0.81;100.00;102524.31;5103478;29;20400;-69
2022/12/27 06:07:36;;;;;;;8.35;7.50;;;;;;;0.85;100.00;102522.19;5103243;29;20027;-71
2022/12/27 06:10:08;;;;;;;18.38;7.05;;;;;;;0.82;100.00;102519.84;5103413;29;20024;-69
2022/12/27 06:12:38;;;;;;;6.90;6.35;;;;;;;0.80;100.00;102521.81;5091282;29;20452;-69
2022/12/27 06:15:10;;;;;;;5.68;4.85;;;;;;;0.67;100.00;102517.69;5085411;29;20028;-70
2022/12/27 06:17:42;;;;;;;8.07;7.47;;;;;;;0.79;100.00;102541.41;5081935;29;20039;-69
2022/12/27 06:20:13;;;;;;;6.80;6.20;;;;;;;0.78;100.00;102539.72;5083327;29;20104;-69
2022/12/27 06:22:44;;;;;;;6.78;6.00;;;;;;;0.72;100.00;102532.34;5082632;29;20115;-69
2022/12/27 06:25:14;;;;;;;12.63;6.13;;;;;;;0.73;100.00;102537.50;5083162;29;20035;-70
2022/12/27 06:27:44;;;;;;;13.55;7.22;;;;;;;0.74;100.00;102536.53;5083459;29;20020;-69
2022/12/27 06:30:15;;;;;;;7.72;5.65;;;;;;;0.71;100.00;102543.97;5083339;29;20028;-69
2022/12/27 06:32:45;;;;;;;7.15;6.32;;;;;;;0.64;100.00;102535.75;5082466;29;20042;-69
2022/12/27 06:35:16;;;;;;;7.72;7.13;;;;;;;0.63;100.00;102536.72;5083149;29;20473;-69
2022/12/27 06:37:46;;;;;;;5.93;5.53;;;;;;;0.31;100.00;102482.22;5083215;29;20047;-70
2022/12/27 06:40:17;;;;;;;7.35;6.70;;;;;;;0.65;100.00;102538.25;5084143;29;20119;-69
2022/12/27 06:42:47;;;;;;;15.73;6.30;;;;;;;0.66;100.00;102529.28;5086713;29;20032;-69
2022/12/27 06:45:17;;;;;;;6.80;5.60;;;;;;;0.68;100.00;102540.63;5086858;29;20111;-69
2022/12/27 06:47:48;;;;;;;8.38;6.20;;;;;;;0.68;100.00;102537.13;5087623;29;20024;-69
2022/12/27 06:50:18;;;;;;;8.85;6.60;;;;;;;0.67;100.00;102535.44;5087393;29;20039;-70
2022/12/27 06:52:48;;;;;;;8.35;6.97;;;;;;;0.70;100.00;102547.63;5086993;29;20250;-70
2022/12/27 06:55:19;;;;;;;8.75;6.75;;;;;;;0.73;100.00;102549.97;5087011;29;20032;-69
2022/12/27 06:57:50;;;;;;;12.82;7.90;;;;;;;0.77;100.00;102554.00;5086730;29;20066;-69
2022/12/27 07:00:20;;;;;;;9.60;7.63;;;;;;;0.76;100.00;102557.66;5086851;29;20032;-70
2022/12/27 07:02:51;;;;;;;14.20;8.18;;;;;;;0.76;100.00;102555.00;5086180;29;20404;-69
2022/12/27 07:05:21;;;;;;;12.15;7.20;;;;;;;0.80;100.00;102561.69;5086594;29;20024;-70
2022/12/27 07:07:53;;;;;;;7.32;6.28;;;;;;;0.73;100.00;102563.25;5086898;29;20486;-69
2022/12/27 07:10:23;;;;;;;7.13;6.63;;;;;;;0.73;100.00;102568.59;5086534;29;20032;-70
2022/12/27 07:12:55;;;;;;;6.80;6.10;;;;;;;0.69;100.00;102573.38;5069198;29;20056;-70
2022/12/27 07:15:25;;;;;;;8.85;6.95;;;;;;;0.69;100.00;102576.03;5086362;29;20082;-69
2022/12/27 07:17:55;;;;;;;10.20;8.38;;;;;;;0.68;100.00;102574.34;5086299;29;20307;-70
2022/12/27 07:20:26;;;;;;;9.73;8.10;;;;;;;0.64;100.00;102573.81;5086306;29;20034;-68
2022/12/27 07:22:57;;;;;;;12.23;8.90;;;;;;;0.57;100.00;102575.41;5086149;29;20114;-69
2022/12/27 07:25:28;;;;;;;8.75;7.18;;;;;;;0.62;100.00;102578.44;5086184;29;20024;-69
2022/12/27 07:27:58;;;;;;;7.45;6.93;;;;;;;0.47;100.00;102560.47;5086571;29;20039;-69
2022/12/27 07:30:28;;;;;;;9.93;9.02;;;;;;;0.61;100.00;102576.75;5086290;29;20074;-69
2022/12/27 07:32:59;;;;;;;14.73;7.30;;;;;;;0.60;100.00;102575.09;5086076;29;20024;-69
2022/12/27 07:35:29;;;;;;;7.47;6.97;;;;;;;0.70;100.00;102593.66;5086299;29;20032;-70
2022/12/27 07:37:59;;;;;;;9.98;9.07;;;;;;;0.72;100.00;102580.22;5086312;29;20036;-69
2022/12/27 07:40:30;;;;;;;7.50;7.00;;;;;;;0.56;100.00;102560.44;5086329;29;20060;-69
2022/12/27 07:43:00;;;;;;;7.05;6.55;;;;;;;0.68;100.00;102580.50;5085768;29;20026;-69
2022/12/27 07:45:31;;;;;;;8.15;7.47;;;;;;;0.59;100.00;102559.28;5084601;29;20111;-68
2022/12/27 07:48:01;;;;;;;12.68;8.18;;;;;;;0.70;100.00;102593.66;5084178;29;20031;-68
2022/12/27 07:50:32;;;;;;;11.48;8.15;;;;;;;0.73;100.00;102597.84;5086351;29;20055;-69
2022/12/27 07:53:02;;;;;;;7.15;6.65;;;;;;;0.70;100.00;102598.13;5085400;29;20028;-70
2022/12/27 07:55:33;;;;;;;15.10;8.68;;;;;;;0.66;100.00;102602.91;5085930;29;20024;-69
2022/12/27 07:58:03;;;;;;;8.77;7.97;;;;;;;0.70;100.00;102606.09;5085832;29;20031;-70
2022/12/27 08:00:33;;;;;;;8.10;7.65;;;;;;;0.67;100.00;102608.06;5086225;29;20115;-69
2022/12/27 08:03:04;;;;;;;7.68;7.00;;;;;;;0.68;100.00;102596.44;5068745;29;20024;-69
2022/12/27 08:05:34;;;;;;;9.57;8.73;;;;;;;0.70;100.00;102590.16;5085883;29;20035;-69
2022/12/27 08:08:05;;;;;;;7.80;7.25;;;;;;;0.76;100.00;102589.56;5083094;29;20020;-69
2022/12/27 08:10:35;;;;;;;8.52;7.63;;;;;;;0.70;100.00;102572.38;5085768;29;20056;-69
2022/12/27 08:13:05;;;;;;;8.50;7.85;;;;;;;0.87;100.00;102592.81;5085620;29;20052;-69
2022/12/27 08:15:37;;;;;;;19.08;9.20;;;;;;;0.86;100.00;102583.22;5085874;29;20032;-69
2022/12/27 08:18:08;;;;;;;7.40;6.82;;;;;;;1.03;100.00;102594.84;5068783;29;20059;-69
2022/12/27 08:20:38;;;;;;;35.92;9.20;;;;;;;1.00;100.00;102568.53;5085883;29;20059;-69
2022/12/27 08:23:09;;;;;;;9.30;7.45;;;;;;;1.19;100.00;102596.81;5084411;29;20028;-69
2022/12/27 08:25:39;;;;;;;9.43;8.00;;;;;;;1.22;100.00;102594.69;5085736;29;20038;-69
2022/12/27 08:28:13;;;;;;;8.80;6.63;;;;;;;1.26;100.00;102595.22;5085648;29;20445;-70
2022/12/27 08:30:45;;;;;;;7.63;7.18;;;;;;;1.35;100.00;102602.31;5085611;29;20093;-70
2022/12/27 08:33:16;;;;;;;9.25;8.63;;;;;;;1.39;100.00;102609.00;5084907;29;20024;-69
2022/12/27 08:35:46;;;;;;;7.82;7.20;;;;;;;1.45;100.00;102599.53;5085148;29;20032;-69
2022/12/27 08:38:17;;;;;;;14.10;8.10;;;;;;;1.49;100.00;102596.41;5085162;29;20437;-69
2022/12/27 08:40:47;;;;;;;18.05;7.85;;;;;;;1.55;100.00;102597.63;5085370;29;20040;-70
2022/12/27 08:43:18;;;;;;;11.52;7.82;;;;;;;1.61;100.00;102605.00;5067933;29;20048;-69
2022/12/27 08:45:49;;;;;;;7.72;7.05;;;;;;;1.65;100.00;102595.72;5085245;29;20038;-68
2022/12/27 08:48:19;;;;;;;9.23;8.43;;;;;;;1.73;100.00;102593.13;5085457;29;20032;-69
2022/12/27 08:50:50;;;;;;;7.70;7.03;;;;;;;1.78;100.00;102596.13;5085287;29;20063;-69
2022/12/27 08:53:20;;;;;;;10.68;8.73;;;;;;;1.79;100.00;102589.81;5084585;29;20544;-69
2022/12/27 08:55:50;;;;;;;7.30;6.82;;;;;;;1.80;100.00;102582.66;5085430;29;20429;-69
2022/12/27 08:58:21;;;;;;;9.65;6.53;;;;;;;1.75;100.00;102572.47;5085272;29;20115;-68
2022/12/27 09:00:51;;;;;;;12.13;7.28;;;;;;;1.87;100.00;102587.22;5085348;29;20031;-69
2022/12/27 09:03:21;;;;;;;13.52;8.60;;;;;;;1.94;100.00;102590.09;5084509;29;20457;-69
2022/12/27 09:05:52;;;;;;;10.60;7.88;;;;;;;1.96;100.00;102594.28;5085088;29;20079;-70
2022/12/27 09:08:22;;;;;;;9.30;8.45;;;;;;;1.86;100.00;102580.22;5084982;29;20377;-69
2022/12/27 09:10:52;;;;;;;8.18;7.55;;;;;;;2.04;100.00;102599.66;5084620;29;20397;-69
2022/12/27 09:13:23;;;;;;;7.80;7.13;;;;;;;2.07;100.00;102602.97;5084504;29;20043;-69
2022/12/27 09:15:53;;;;;;;8.38;6.80;;;;;;;2.13;100.00;102597.88;5084814;29;20106;-69
2022/12/27 09:18:23;;;;;;;8.00;7.40;;;;;;;2.20;100.00;102600.75;5084832;29;20031;-69
2022/12/27 09:20:54;;;;;;;8.38;7.78;;;;;;;2.23;100.00;102611.09;5085039;29;20135;-69
2022/12/27 09:23:24;;;;;;;9.00;7.93;;;;;;;2.12;100.00;102576.72;5084323;29;20027;-69
2022/12/27 09:26:20;;;;;;;;;;;;;;;2.37;100.00;102607.81;5305944;27;20394;-68
2022/12/27 09:28:52;;;;;;;7.03;6.63;;;;;;;2.39;100.00;102600.50;5305610;28;19919;-69
2022/12/27 09:31:23;;;;;;;9.75;8.43;;;;;;;2.46;100.00;102606.03;5306173;27;20050;-68
2022/12/27 09:33:55;;;;;;;7.70;6.82;;;;;;;2.51;100.00;102603.72;5305015;27;20023;-68
2022/12/27 09:36:29;;;;;;;19.98;12.75;;;;;;;2.56;100.00;102606.75;5305844;27;20027;-69
2022/12/27 09:39:00;;;;;;;9.18;7.80;;;;;;;2.59;100.00;102601.09;5305778;27;20447;-69
2022/12/27 09:42:02;;;;;;;7.10;6.63;;;;;;;2.63;100.00;102600.59;5305646;27;20043;-69
2022/12/27 09:44:46;;;;;;;10.48;7.20;;;;;;;2.66;100.00;102602.09;5304411;28;20475;-69
2022/12/27 09:47:24;;;;;;;8.07;7.53;;;;;;;2.69;100.00;102596.44;5308220;28;20027;-70
2022/12/27 09:50:01;;;;;;;18.40;6.95;;;;;;;2.67;100.00;102585.94;5310512;27;20039;-71
2022/12/27 09:52:40;;;;;;;7.93;6.93;;;;;;;2.85;100.00;102609.88;5307562;28;20015;-70
2022/12/27 09:55:22;;;;;;;7.80;7.40;;;;;;;2.87;100.00;102591.88;5308169;27;20054;-70
2022/12/27 09:58:03;;;;;;;7.03;6.60;;;;;;;2.98;100.00;102620.06;5310143;27;20057;-70
2022/12/27 10:00:33;;;;;;;12.05;7.45;;;;;;;3.01;100.00;102614.41;5310123;27;20363;-70
2022/12/27 10:03:05;;;;;;;8.23;5.55;;;;;;;3.03;100.00;102612.41;5309644;27;20020;-70
2022/12/27 10:05:37;;;;;;;13.32;8.90;;;;;;;3.16;100.00;102610.09;5310189;27;20095;-70
2022/12/27 10:08:25;;;;;;;7.57;7.07;;;;;;;3.26;100.00;102616.09;5307638;27;20151;-70
2022/12/27 10:11:34;;;;;;;7.60;6.75;;;;;;;3.33;100.00;102617.13;5305274;27;20479;-70
2022/12/27 10:14:46;;;;;;;11.55;7.45;;;;;;;3.45;100.00;102609.63;5304541;28;20039;-70
2022/12/27 10:17:50;;;;;;;6.35;5.95;;;;;;;3.63;100.00;102606.78;5270570;27;20575;-70
2022/12/27 10:20:42;;;;;;;9.02;7.60;;;;;;;3.73;100.00;102602.13;5305245;27;20028;-70
2022/12/27 10:23:21;;;;;;;6.07;5.78;;;;;;;3.79;100.00;102601.41;5304623;27;20026;-71
2022/12/27 10:26:00;;;;;;;8.20;6.67;;;;;;;3.84;100.00;102607.09;5304547;27;20069;-70
2022/12/27 10:28:40;;;;;;;6.32;5.85;;;;;;;3.97;100.00;102602.09;5305149;27;20390;-70
2022/12/27 10:31:21;;;;;;;6.97;5.15;;;;;;;4.20;100.00;102610.22;5305014;27;20023;-71
2022/12/27 10:33:52;;;;;;;5.53;5.13;;;;;;;4.22;100.00;102597.50;5304231;27;20019;-70
2022/12/27 10:36:26;;;;;;;6.20;5.78;;;;;;;4.29;100.00;102578.94;5294769;28;20047;-69
2022/12/27 10:38:56;;;;;;;14.45;5.55;;;;;;;4.57;100.00;102609.59;5291203;28;20715;-69
2022/12/27 10:42:08;;;;;;;5.13;4.72;;;;;;;4.80;100.00;102609.66;5290707;28;20023;-69
2022/12/27 10:44:39;;;;;;;12.35;5.40;;;;;;;4.93;100.00;102596.50;5290085;28;20483;-70
2022/12/27 10:47:09;;;;;;;5.10;4.70;;;;;;;4.95;100.00;102585.63;5290613;28;20042;-70
2022/12/27 10:50:03;;;;;;;6.20;5.18;;;;;;;5.15;100.00;102608.28;5290485;28;20445;-70
2022/12/27 10:52:34;;;;;;;6.63;5.13;;;;;;;5.28;100.00;102596.97;5289321;28;20434;-70
2022/12/27 10:55:25;;;;;;;5.22;4.43;;;;;;;5.40;100.00;102599.06;5290090;28;20046;-70
2022/12/27 10:57:55;;;;;;;6.15;4.78;;;;;;;5.29;100.00;102574.53;5289891;28;20027;-70
2022/12/27 11:00:26;;;;;;;6.95;5.80;;;;;;;5.32;100.00;102568.81;5290879;28;20030;-72
2022/12/27 11:02:59;;;;;;;5.05;4.65;;;;;;;5.62;100.00;102608.09;5289961;28;20031;-70
2022/12/27 11:05:32;;;;;;;6.20;4.47;;;;;;;5.41;100.00;102573.09;5289236;28;20016;-70
2022/12/27 11:08:19;;;;;;;9.98;5.20;;;;;;;5.60;100.00;102603.91;5289510;28;20059;-70
2022/12/27 11:11:14;;;;;;;6.38;5.70;;;;;;;5.63;100.00;102587.47;5289595;28;20049;-70
2022/12/27 11:13:45;;;;;;;6.55;5.82;;;;;;;5.71;100.00;102598.97;5288037;28;20020;-70
2022/12/27 11:16:36;;;;;;;6.80;5.50;;;;;;;5.83;100.00;102599.34;5289686;28;20035;-70
2022/12/27 11:19:21;;;;;;;6.13;5.20;;;;;;;5.71;100.00;102564.13;5289417;28;20414;-70
2022/12/27 11:21:54;;;;;;;5.47;5.05;;;;;;;5.97;100.00;102592.38;5289223;28;20027;-70
2022/12/27 11:24:24;;;;;;;5.25;4.30;;;;;;;6.07;100.00;102591.09;5287649;28;20032;-70
2022/12/27 11:26:58;;;;;;;6.47;3.08;;;;;;;6.14;100.00;102596.56;5289578;28;20039;-69
2022/12/27 11:29:31;;;;;;;6.72;4.82;;;;;;;6.19;100.00;102596.00;5289419;28;20024;-69
2022/12/27 11:32:07;;;;;;;8.27;5.40;;;;;;;6.22;100.00;102587.59;5289673;22;20033;-66
2022/12/27 11:34:44;;;;;;;7.93;5.40;;;;;;;6.09;100.00;102562.22;5238206;28;20024;-63
2022/12/27 11:37:21;;;;;;;4.35;4.10;;;;;;;6.24;100.00;102578.34;5249202;28;20021;-64
2022/12/27 11:40:11;;;;;;;4.47;4.15;;;;;;;6.22;100.00;102576.84;5249418;28;20388;-63
2022/12/27 11:42:45;;;;;;;5.32;4.75;;;;;;;6.15;100.00;102562.50;5249250;28;20024;-63
2022/12/27 11:45:39;;;;;;;4.57;4.18;;;;;;;6.09;100.00;102561.41;5248849;28;20031;-64
2022/12/27 11:48:28;;;;;;;5.85;4.85;;;;;;;6.04;100.00;102558.47;5247269;28;20061;-66
2022/12/27 11:51:36;;;;;;;6.00;5.13;;;;;;;5.56;100.00;102479.34;5248520;28;20028;-64
2022/12/27 11:54:17;;;;;;;4.30;4.00;;;;;;;6.02;100.00;102560.50;5247196;28;20067;-66
2022/12/27 11:56:54;;;;;;;6.85;5.68;;;;;;;5.99;100.00;102548.28;5248187;28;20078;-66
2022/12/27 12:00:07;;;;;;;5.10;4.80;;;;;;;5.94;100.00;102549.84;5247910;28;20024;-64
2022/12/27 12:02:58;;;;;;;6.55;5.50;;;;;;;6.00;100.00;102552.63;5233148;28;20036;-64
2022/12/27 12:06:07;;;;;;;6.07;5.20;;;;;;;6.08;100.00;102544.47;5247724;28;20070;-64
2022/12/27 12:09:16;;;;;;;7.20;5.28;;;;;;;6.20;100.00;102533.28;5247196;28;20029;-66
2022/12/27 12:12:18;;;;;;;8.63;5.25;;;;;;;6.32;100.00;102529.97;5246606;28;20399;-64
2022/12/27 12:14:57;;;;;;;14.63;5.82;;;;;;;6.27;100.00;102504.72;5246750;28;20031;-65
2022/12/27 12:17:58;;;;;;;5.85;4.90;;;;;;;6.42;100.00;102508.19;5246441;28;20028;-64
2022/12/27 12:20:40;;;;;;;9.85;4.57;;;;;;;6.44;100.00;102506.13;5246508;28;20495;-64
2022/12/27 12:23:20;;;;;;;9.30;5.78;;;;;;;6.46;100.00;102505.97;5246134;28;20103;-64
2022/12/27 12:26:05;;;;;;;12.38;5.63;;;;;;;6.46;100.00;102514.84;5246413;28;20028;-64
2022/12/27 12:28:54;;;;;;;5.63;5.13;;;;;;;6.52;100.00;102503.34;5245939;28;20033;-66
2022/12/27 12:31:24;;;;;;;8.55;5.38;;;;;;;6.52;100.00;102503.34;5245987;28;20024;-64
2022/12/27 12:34:22;;;;;;;4.93;4.45;;;;;;;6.55;100.00;102497.63;5244605;28;20032;-64
2022/12/27 12:37:11;;;;;;;4.63;4.22;;;;;;;6.62;100.00;102498.53;5245562;28;20073;-64
2022/12/27 12:39:56;;;;;;;8.82;5.68;;;;;;;6.60;100.00;102492.50;5246400;28;20033;-65
2022/12/27 12:42:45;;;;;;;6.70;4.43;;;;;;;6.59;100.00;102484.66;5245787;28;20028;-65
2022/12/27 12:45:15;;;;;;;4.75;4.55;;;;;;;6.58;100.00;102482.97;5245881;28;20481;-64
2022/12/27 12:48:31;;;;;;;6.53;6.00;;;;;;;6.52;100.00;102484.56;5246112;28;20062;-64
2022/12/27 12:51:01;;;;;;;7.68;5.15;;;;;;;6.50;100.00;102481.25;5120756;29;20106;-63
2022/12/27 12:54:04;;;;;;;5.68;5.30;;;;;;;6.47;100.00;102473.56;5205738;28;20124;-65
2022/12/27 12:56:53;;;;;;;7.45;4.85;;;;;;;6.47;100.00;102459.31;5138382;28;20043;-66
2022/12/27 12:59:33;;;;;;;4.47;4.28;;;;;;;6.50;100.00;102464.31;5244839;28;20427;-65
2022/12/27 13:02:27;;;;;;;5.38;4.95;;;;;;;6.39;100.00;102438.78;5244413;28;20089;-64
2022/12/27 13:05:24;;;;;;;5.70;5.20;;;;;;;6.53;100.00;102450.50;5226357;28;20316;-65
2022/12/27 13:08:09;;;;;;;6.20;5.60;;;;;;;6.51;100.00;102453.38;5245093;28;20036;-64
2022/12/27 13:10:39;;;;;;;13.90;5.43;;;;;;;6.52;100.00;102444.31;5244983;28;20115;-65
2022/12/27 13:13:48;;;;;;;5.72;4.63;;;;;;;6.52;100.00;102438.94;5243807;28;20107;-65
2022/12/27 13:16:28;;;;;;;7.10;6.45;;;;;;;6.61;100.00;102434.28;5244813;28;20419;-64
2022/12/27 13:19:40;;;;;;;6.10;5.47;;;;;;;6.71;100.00;102427.56;5244735;28;20127;-64
2022/12/27 13:22:22;;;;;;;5.07;4.72;;;;;;;6.69;100.00;102418.88;5180113;28;20045;-66
2022/12/27 13:25:14;;;;;;;4.13;3.88;;;;;;;6.80;100.00;102420.22;5240940;28;20036;-63
2022/12/27 13:27:57;;;;;;;12.95;5.25;;;;;;;6.80;100.00;102422.06;5244677;28;20085;-64
2022/12/27 13:30:42;;;;;;;5.20;4.80;;;;;;;6.76;100.00;102416.25;5244683;28;20024;-63
2022/12/27 13:33:53;;;;;;;5.40;4.22;;;;;;;6.75;100.00;102403.84;5243911;28;20066;-65
2022/12/27 13:36:30;;;;;;;6.50;5.88;;;;;;;6.67;100.00;102399.44;5244537;28;20028;-65
2022/12/27 13:39:06;;;;;;;7.97;5.43;;;;;;;6.59;100.00;102401.44;5244430;28;20461;-64
2022/12/27 13:41:52;;;;;;;14.50;6.05;;;;;;;6.53;100.00;102394.97;5244539;28;20056;-64
2022/12/27 13:44:56;;;;;;;7.25;6.45;;;;;;;6.46;100.00;102380.66;5244225;28;20028;-65
2022/12/27 13:47:49;;;;;;;3.85;3.40;;;;;;;6.44;100.00;102378.16;5244616;28;20016;-64
2022/12/27 13:50:28;;;;;;;11.60;5.97;;;;;;;6.42;100.00;102379.38;5244457;28;20025;-65
2022/12/27 13:53:16;;;;;;;5.22;4.80;;;;;;;6.40;100.00;102371.53;5243760;28;20027;-65